sensor_id;sensor_type;location;lat;lon;timestamp;temperature;humidity
13682;DHT22;6913;49.892;7.936;2022-09-27T00:01:22;11.40;99.90
13682;DHT22;6913;49.892;7.936;2022-09-27T00:03:52;11.40;99.90
13682;DHT22;6913;49.892;7.936;2022-09-27T00:06:23;11.50;99.90
13682;DHT22;6913;49.892;7.936;2022-09-27T00:08:50;11.40;99.90
13682;DHT22;6913;49.892;7.936;2022-09-27T00:11:24;11.40;99.90
13682;DHT22;6913;49.892;7.936;2022-09-27T00:13:52;11.30;99.90
13682;DHT22;6913;49.892;7.936;2022-09-27T00:16:21;11.30;99.90
13682;DHT22;6913;49.892;7.936;2022-09-27T00:18:48;11.30;99.90
13682;DHT22;6913;49.892;7.936;2022-09-27T00:21:15;11.30;99.90
13682;DHT22;6913;49.892;7.936;2022-09-27T00:23:42;11.30;99.90
13682;DHT22;6913;49.892;7.936;2022-09-27T00:26:11;11.20;99.90
13682;DHT22;6913;49.892;7.936;2022-09-27T00:28:39;11.20;99.90
13682;DHT22;6913;49.892;7.936;2022-09-27T00:31:16;11.20;99.90
13682;DHT22;6913;49.892;7.936;2022-09-27T00:33:47;11.20;99.90
13682;DHT22;6913;49.892;7.936;2022-09-27T00:36:14;11.10;99.90
13682;DHT22;6913;49.892;7.936;2022-09-27T00:38:41;11.10;99.90
13682;DHT22;6913;49.892;7.936;2022-09-27T00:41:13;11.10;99.90
13682;DHT22;6913;49.892;7.936;2022-09-27T00:43:46;11.10;99.90
13682;DHT22;6913;49.892;7.936;2022-09-27T00:46:20;11.10;99.90
13682;DHT22;6913;49.892;7.936;2022-09-27T00:48:59;11.10;99.90
13682;DHT22;6913;49.892;7.936;2022-09-27T00:51:28;11.10;99.90
13682;DHT22;6913;49.892;7.936;2022-09-27T00:53:56;11.10;99.90
13682;DHT22;6913;49.892;7.936;2022-09-27T00:56:28;11.10;99.90
13682;DHT22;6913;49.892;7.936;2022-09-27T00:58:58;11.10;99.90
13682;DHT22;6913;49.892;7.936;2022-09-27T01:01:26;11.20;99.90
13682;DHT22;6913;49.892;7.936;2022-09-27T01:03:59;11.20;99.90
13682;DHT22;6913;49.892;7.936;2022-09-27T01:06:28;11.20;99.90
13682;DHT22;6913;49.892;7.936;2022-09-27T01:08:55;11.20;99.90
13682;DHT22;6913;49.892;7.936;2022-09-27T01:11:34;11.10;99.90
13682;DHT22;6913;49.892;7.936;2022-09-27T01:14:16;11.00;99.90
13682;DHT22;6913;49.892;7.936;2022-09-27T01:16:56;11.00;99.90
13682;DHT22;6913;49.892;7.936;2022-09-27T01:19:45;11.00;99.90
13682;DHT22;6913;49.892;7.936;2022-09-27T01:22:14;10.90;99.90
13682;DHT22;6913;49.892;7.936;2022-09-27T01:24:59;10.90;99.90
13682;DHT22;6913;49.892;7.936;2022-09-27T01:27:51;10.80;99.90
13682;DHT22;6913;49.892;7.936;2022-09-27T01:30:27;10.90;99.90
13682;DHT22;6913;49.892;7.936;2022-09-27T01:36:19;10.90;99.90
13682;DHT22;6913;49.892;7.936;2022-09-27T01:38:56;10.90;99.90
13682;DHT22;6913;49.892;7.936;2022-09-27T01:41:30;10.80;99.90
13682;DHT22;6913;49.892;7.936;2022-09-27T01:44:02;11.20;99.90
13682;DHT22;6913;49.892;7.936;2022-09-27T01:46:35;10.80;99.90
13682;DHT22;6913;49.892;7.936;2022-09-27T01:49:09;10.80;99.90
13682;DHT22;6913;49.892;7.936;2022-09-27T01:51:41;10.80;99.90
13682;DHT22;6913;49.892;7.936;2022-09-27T01:54:12;10.70;99.90
13682;DHT22;6913;49.892;7.936;2022-09-27T01:56:45;10.70;99.90
13682;DHT22;6913;49.892;7.936;2022-09-27T01:59:16;10.70;99.90
13682;DHT22;6913;49.892;7.936;2022-09-27T02:01:48;11.00;99.90
13682;DHT22;6913;49.892;7.936;2022-09-27T02:04:20;10.70;99.90
13682;DHT22;6913;49.892;7.936;2022-09-27T02:06:52;10.70;99.90
13682;DHT22;6913;49.892;7.936;2022-09-27T02:09:23;10.70;99.90
13682;DHT22;6913;49.892;7.936;2022-09-27T02:11:56;10.60;99.90
13682;DHT22;6913;49.892;7.936;2022-09-27T02:14:28;10.60;99.90
13682;DHT22;6913;49.892;7.936;2022-09-27T02:17:03;10.60;99.90
13682;DHT22;6913;49.892;7.936;2022-09-27T02:19:37;10.60;99.90
13682;DHT22;6913;49.892;7.936;2022-09-27T02:22:13;10.70;99.90
13682;DHT22;6913;49.892;7.936;2022-09-27T02:24:45;10.70;99.90
13682;DHT22;6913;49.892;7.936;2022-09-27T02:27:17;10.90;99.90
13682;DHT22;6913;49.892;7.936;2022-09-27T02:29:51;10.70;99.90
13682;DHT22;6913;49.892;7.936;2022-09-27T02:32:20;10.70;99.90
13682;DHT22;6913;49.892;7.936;2022-09-27T02:34:48;10.70;99.90
13682;DHT22;6913;49.892;7.936;2022-09-27T02:37:16;10.70;99.90
13682;DHT22;6913;49.892;7.936;2022-09-27T02:39:43;10.70;99.90
13682;DHT22;6913;49.892;7.936;2022-09-27T02:42:10;10.80;99.90
13682;DHT22;6913;49.892;7.936;2022-09-27T02:44:38;10.70;99.90
13682;DHT22;6913;49.892;7.936;2022-09-27T02:50:24;10.70;99.90
13682;DHT22;6913;49.892;7.936;2022-09-27T02:53:03;11.00;99.90
13682;DHT22;6913;49.892;7.936;2022-09-27T02:55:42;10.80;99.90
13682;DHT22;6913;49.892;7.936;2022-09-27T02:58:22;10.70;99.90
13682;DHT22;6913;49.892;7.936;2022-09-27T03:00:59;10.70;99.90
13682;DHT22;6913;49.892;7.936;2022-09-27T03:03:34;10.70;99.90
13682;DHT22;6913;49.892;7.936;2022-09-27T03:06:06;10.70;99.90
13682;DHT22;6913;49.892;7.936;2022-09-27T03:08:34;10.60;99.90
13682;DHT22;6913;49.892;7.936;2022-09-27T03:11:02;10.60;99.90
13682;DHT22;6913;49.892;7.936;2022-09-27T03:13:29;10.60;99.90
13682;DHT22;6913;49.892;7.936;2022-09-27T03:15:56;10.60;99.90
13682;DHT22;6913;49.892;7.936;2022-09-27T03:18:23;10.60;99.90
13682;DHT22;6913;49.892;7.936;2022-09-27T03:20:51;10.60;99.90
13682;DHT22;6913;49.892;7.936;2022-09-27T03:23:19;10.60;99.90
13682;DHT22;6913;49.892;7.936;2022-09-27T03:25:46;10.50;99.90
13682;DHT22;6913;49.892;7.936;2022-09-27T03:28:14;10.50;99.90
13682;DHT22;6913;49.892;7.936;2022-09-27T03:30:43;10.50;99.90
13682;DHT22;6913;49.892;7.936;2022-09-27T03:33:10;10.40;99.90
13682;DHT22;6913;49.892;7.936;2022-09-27T03:35:37;10.40;99.90
13682;DHT22;6913;49.892;7.936;2022-09-27T03:38:04;10.30;99.90
13682;DHT22;6913;49.892;7.936;2022-09-27T03:40:33;10.20;99.90
13682;DHT22;6913;49.892;7.936;2022-09-27T03:43:00;10.30;99.90
13682;DHT22;6913;49.892;7.936;2022-09-27T03:45:28;10.30;99.90
13682;DHT22;6913;49.892;7.936;2022-09-27T03:47:54;10.30;99.90
13682;DHT22;6913;49.892;7.936;2022-09-27T03:50:21;10.30;99.90
13682;DHT22;6913;49.892;7.936;2022-09-27T03:52:48;10.40;99.90
13682;DHT22;6913;49.892;7.936;2022-09-27T03:55:15;10.30;99.90
13682;DHT22;6913;49.892;7.936;2022-09-27T03:57:45;10.30;99.90
13682;DHT22;6913;49.892;7.936;2022-09-27T04:00:13;10.30;99.90
13682;DHT22;6913;49.892;7.936;2022-09-27T04:02:40;10.30;99.90
13682;DHT22;6913;49.892;7.936;2022-09-27T04:05:08;10.30;99.90
13682;DHT22;6913;49.892;7.936;2022-09-27T04:07:35;10.30;99.90
13682;DHT22;6913;49.892;7.936;2022-09-27T04:10:03;10.20;99.90
13682;DHT22;6913;49.892;7.936;2022-09-27T04:12:29;10.20;99.90
13682;DHT22;6913;49.892;7.936;2022-09-27T04:14:58;10.20;99.90
13682;DHT22;6913;49.892;7.936;2022-09-27T04:17:26;10.20;99.90
13682;DHT22;6913;49.892;7.936;2022-09-27T04:19:53;10.20;99.90
13682;DHT22;6913;49.892;7.936;2022-09-27T04:22:20;10.10;99.90
13682;DHT22;6913;49.892;7.936;2022-09-27T04:24:48;10.10;99.90
13682;DHT22;6913;49.892;7.936;2022-09-27T04:27:15;10.30;99.90
13682;DHT22;6913;49.892;7.936;2022-09-27T04:29:42;10.20;99.90
13682;DHT22;6913;49.892;7.936;2022-09-27T04:32:11;10.20;99.90
13682;DHT22;6913;49.892;7.936;2022-09-27T04:34:39;10.00;99.90
13682;DHT22;6913;49.892;7.936;2022-09-27T04:37:23;10.00;99.90
13682;DHT22;6913;49.892;7.936;2022-09-27T04:39:51;10.00;99.90
13682;DHT22;6913;49.892;7.936;2022-09-27T04:42:17;10.40;99.90
13682;DHT22;6913;49.892;7.936;2022-09-27T04:44:44;10.10;99.90
13682;DHT22;6913;49.892;7.936;2022-09-27T04:47:13;10.10;99.90
13682;DHT22;6913;49.892;7.936;2022-09-27T04:49:41;10.00;99.90
13682;DHT22;6913;49.892;7.936;2022-09-27T04:52:08;10.00;99.90
13682;DHT22;6913;49.892;7.936;2022-09-27T04:54:35;9.90;99.90
13682;DHT22;6913;49.892;7.936;2022-09-27T04:57:02;9.80;99.90
13682;DHT22;6913;49.892;7.936;2022-09-27T04:59:29;9.90;99.90
13682;DHT22;6913;49.892;7.936;2022-09-27T05:01:56;9.90;99.90
13682;DHT22;6913;49.892;7.936;2022-09-27T05:04:26;9.80;99.90
13682;DHT22;6913;49.892;7.936;2022-09-27T05:06:54;9.80;99.90
13682;DHT22;6913;49.892;7.936;2022-09-27T05:09:21;9.80;99.90
13682;DHT22;6913;49.892;7.936;2022-09-27T05:11:48;9.80;99.90
13682;DHT22;6913;49.892;7.936;2022-09-27T05:14:15;9.90;99.90
13682;DHT22;6913;49.892;7.936;2022-09-27T05:16:42;9.80;99.90
13682;DHT22;6913;49.892;7.936;2022-09-27T05:19:09;10.10;99.90
13682;DHT22;6913;49.892;7.936;2022-09-27T05:21:37;9.70;99.90
13682;DHT22;6913;49.892;7.936;2022-09-27T05:24:04;10.00;99.90
13682;DHT22;6913;49.892;7.936;2022-09-27T05:26:31;9.70;99.90
13682;DHT22;6913;49.892;7.936;2022-09-27T05:28:58;9.70;99.90
13682;DHT22;6913;49.892;7.936;2022-09-27T05:31:25;9.70;99.90
13682;DHT22;6913;49.892;7.936;2022-09-27T05:33:52;9.70;99.90
13682;DHT22;6913;49.892;7.936;2022-09-27T05:36:19;9.70;99.90
13682;DHT22;6913;49.892;7.936;2022-09-27T05:38:49;9.70;99.90
13682;DHT22;6913;49.892;7.936;2022-09-27T05:41:16;9.70;99.90
13682;DHT22;6913;49.892;7.936;2022-09-27T05:43:43;9.70;99.90
13682;DHT22;6913;49.892;7.936;2022-09-27T05:46:10;9.70;99.90
13682;DHT22;6913;49.892;7.936;2022-09-27T05:48:37;10.00;99.90
13682;DHT22;6913;49.892;7.936;2022-09-27T05:51:05;9.70;99.90
13682;DHT22;6913;49.892;7.936;2022-09-27T05:53:32;9.80;99.90
13682;DHT22;6913;49.892;7.936;2022-09-27T05:56:01;10.00;99.90
13682;DHT22;6913;49.892;7.936;2022-09-27T05:58:28;9.90;99.90
13682;DHT22;6913;49.892;7.936;2022-09-27T06:00:56;9.90;99.90
13682;DHT22;6913;49.892;7.936;2022-09-27T06:03:23;10.20;99.90
13682;DHT22;6913;49.892;7.936;2022-09-27T06:05:49;10.00;99.90
13682;DHT22;6913;49.892;7.936;2022-09-27T06:08:16;10.20;99.90
13682;DHT22;6913;49.892;7.936;2022-09-27T06:10:44;10.10;99.90
13682;DHT22;6913;49.892;7.936;2022-09-27T06:13:14;10.10;99.90
13682;DHT22;6913;49.892;7.936;2022-09-27T06:15:43;10.30;99.90
13682;DHT22;6913;49.892;7.936;2022-09-27T06:18:12;10.00;99.90
13682;DHT22;6913;49.892;7.936;2022-09-27T06:20:41;10.30;99.90
13682;DHT22;6913;49.892;7.936;2022-09-27T06:23:10;10.10;99.90
13682;DHT22;6913;49.892;7.936;2022-09-27T06:25:38;10.10;99.90
13682;DHT22;6913;49.892;7.936;2022-09-27T06:28:05;10.30;99.90
13682;DHT22;6913;49.892;7.936;2022-09-27T06:30:37;10.50;99.90
13682;DHT22;6913;49.892;7.936;2022-09-27T06:33:04;10.20;99.90
13682;DHT22;6913;49.892;7.936;2022-09-27T06:35:34;10.20;99.90
13682;DHT22;6913;49.892;7.936;2022-09-27T06:38:02;10.30;99.90
13682;DHT22;6913;49.892;7.936;2022-09-27T06:40:31;10.50;99.90
13682;DHT22;6913;49.892;7.936;2022-09-27T06:43:01;10.20;99.90
13682;DHT22;6913;49.892;7.936;2022-09-27T06:45:28;10.20;99.90
13682;DHT22;6913;49.892;7.936;2022-09-27T06:47:57;10.80;99.90
13682;DHT22;6913;49.892;7.936;2022-09-27T06:50:26;10.30;99.90
13682;DHT22;6913;49.892;7.936;2022-09-27T06:52:54;10.40;99.90
13682;DHT22;6913;49.892;7.936;2022-09-27T06:55:21;10.50;99.90
13682;DHT22;6913;49.892;7.936;2022-09-27T06:57:48;10.40;99.90
13682;DHT22;6913;49.892;7.936;2022-09-27T07:00:33;10.80;99.90
13682;DHT22;6913;49.892;7.936;2022-09-27T07:03:01;10.60;99.90
13682;DHT22;6913;49.892;7.936;2022-09-27T07:05:28;10.50;99.90
13682;DHT22;6913;49.892;7.936;2022-09-27T07:07:55;10.70;99.90
13682;DHT22;6913;49.892;7.936;2022-09-27T07:10:23;10.70;99.90
13682;DHT22;6913;49.892;7.936;2022-09-27T07:12:51;10.80;99.90
13682;DHT22;6913;49.892;7.936;2022-09-27T07:15:18;11.00;99.90
13682;DHT22;6913;49.892;7.936;2022-09-27T07:17:46;11.10;99.90
13682;DHT22;6913;49.892;7.936;2022-09-27T07:20:15;11.20;99.90
13682;DHT22;6913;49.892;7.936;2022-09-27T07:22:42;11.30;99.90
13682;DHT22;6913;49.892;7.936;2022-09-27T07:25:09;11.40;99.90
13682;DHT22;6913;49.892;7.936;2022-09-27T07:27:37;11.70;99.90
13682;DHT22;6913;49.892;7.936;2022-09-27T07:30:07;12.10;99.90
13682;DHT22;6913;49.892;7.936;2022-09-27T07:32:34;12.80;99.90
13682;DHT22;6913;49.892;7.936;2022-09-27T07:35:02;13.70;99.90
13682;DHT22;6913;49.892;7.936;2022-09-27T07:37:32;13.90;99.90
13682;DHT22;6913;49.892;7.936;2022-09-27T07:39:59;14.10;99.90
13682;DHT22;6913;49.892;7.936;2022-09-27T07:42:28;14.20;99.90
13682;DHT22;6913;49.892;7.936;2022-09-27T07:44:55;14.50;99.90
13682;DHT22;6913;49.892;7.936;2022-09-27T07:47:24;14.90;99.90
13682;DHT22;6913;49.892;7.936;2022-09-27T07:49:52;15.00;99.90
13682;DHT22;6913;49.892;7.936;2022-09-27T07:52:19;15.20;99.90
13682;DHT22;6913;49.892;7.936;2022-09-27T07:54:47;15.40;99.90
13682;DHT22;6913;49.892;7.936;2022-09-27T07:57:14;15.50;99.90
13682;DHT22;6913;49.892;7.936;2022-09-27T07:59:42;15.70;99.90
13682;DHT22;6913;49.892;7.936;2022-09-27T08:02:13;15.70;99.90
13682;DHT22;6913;49.892;7.936;2022-09-27T08:04:40;15.40;99.90
13682;DHT22;6913;49.892;7.936;2022-09-27T08:07:08;15.50;99.90
13682;DHT22;6913;49.892;7.936;2022-09-27T08:09:35;15.40;99.90
13682;DHT22;6913;49.892;7.936;2022-09-27T08:12:04;15.30;99.90
13682;DHT22;6913;49.892;7.936;2022-09-27T08:14:31;14.90;99.90
13682;DHT22;6913;49.892;7.936;2022-09-27T08:16:58;14.70;99.90
13682;DHT22;6913;49.892;7.936;2022-09-27T08:19:25;14.90;99.90
13682;DHT22;6913;49.892;7.936;2022-09-27T08:21:52;15.00;99.90
13682;DHT22;6913;49.892;7.936;2022-09-27T08:24:20;14.90;99.90
13682;DHT22;6913;49.892;7.936;2022-09-27T08:26:47;14.20;99.90
13682;DHT22;6913;49.892;7.936;2022-09-27T08:29:15;13.80;99.90
13682;DHT22;6913;49.892;7.936;2022-09-27T08:31:42;13.60;99.90
13682;DHT22;6913;49.892;7.936;2022-09-27T08:34:09;13.40;99.90
13682;DHT22;6913;49.892;7.936;2022-09-27T08:36:36;13.40;99.90
13682;DHT22;6913;49.892;7.936;2022-09-27T08:39:03;13.40;99.90
13682;DHT22;6913;49.892;7.936;2022-09-27T08:41:35;13.20;99.90
13682;DHT22;6913;49.892;7.936;2022-09-27T08:44:15;13.10;99.90
13682;DHT22;6913;49.892;7.936;2022-09-27T08:46:52;12.90;99.90
13682;DHT22;6913;49.892;7.936;2022-09-27T08:49:27;13.00;99.90
13682;DHT22;6913;49.892;7.936;2022-09-27T08:51:57;13.20;99.90
13682;DHT22;6913;49.892;7.936;2022-09-27T08:54:27;13.10;99.90
13682;DHT22;6913;49.892;7.936;2022-09-27T08:56:59;13.30;99.90
13682;DHT22;6913;49.892;7.936;2022-09-27T08:59:34;13.30;99.90
13682;DHT22;6913;49.892;7.936;2022-09-27T09:02:04;13.30;99.90
13682;DHT22;6913;49.892;7.936;2022-09-27T09:04:36;13.30;99.90
13682;DHT22;6913;49.892;7.936;2022-09-27T09:07:14;13.20;99.90
13682;DHT22;6913;49.892;7.936;2022-09-27T09:09:51;13.70;99.90
13682;DHT22;6913;49.892;7.936;2022-09-27T09:12:29;13.80;99.90
13682;DHT22;6913;49.892;7.936;2022-09-27T09:15:20;13.80;99.90
13682;DHT22;6913;49.892;7.936;2022-09-27T09:18:10;14.00;99.90
13682;DHT22;6913;49.892;7.936;2022-09-27T09:20:54;14.10;99.90
13682;DHT22;6913;49.892;7.936;2022-09-27T09:26:21;14.50;99.90
13682;DHT22;6913;49.892;7.936;2022-09-27T09:29:07;14.50;99.90
13682;DHT22;6913;49.892;7.936;2022-09-27T09:31:41;14.40;99.90
13682;DHT22;6913;49.892;7.936;2022-09-27T09:34:13;14.20;99.90
13682;DHT22;6913;49.892;7.936;2022-09-27T09:36:46;14.10;99.90
13682;DHT22;6913;49.892;7.936;2022-09-27T09:39:17;14.10;99.90
13682;DHT22;6913;49.892;7.936;2022-09-27T09:41:56;13.90;99.90
13682;DHT22;6913;49.892;7.936;2022-09-27T09:44:29;14.00;99.90
13682;DHT22;6913;49.892;7.936;2022-09-27T09:47:00;13.80;99.90
13682;DHT22;6913;49.892;7.936;2022-09-27T09:49:29;13.90;99.90
13682;DHT22;6913;49.892;7.936;2022-09-27T09:52:00;13.80;99.90
13682;DHT22;6913;49.892;7.936;2022-09-27T09:54:31;13.70;99.90
13682;DHT22;6913;49.892;7.936;2022-09-27T09:57:02;13.80;99.90
13682;DHT22;6913;49.892;7.936;2022-09-27T09:59:37;14.00;99.90
13682;DHT22;6913;49.892;7.936;2022-09-27T10:02:27;14.00;99.90
13682;DHT22;6913;49.892;7.936;2022-09-27T10:04:57;14.10;99.90
13682;DHT22;6913;49.892;7.936;2022-09-27T10:07:24;14.10;99.90
13682;DHT22;6913;49.892;7.936;2022-09-27T10:09:55;14.20;99.90
13682;DHT22;6913;49.892;7.936;2022-09-27T10:12:22;14.10;99.90
13682;DHT22;6913;49.892;7.936;2022-09-27T10:14:51;14.10;99.90
13682;DHT22;6913;49.892;7.936;2022-09-27T10:17:23;14.00;99.90
13682;DHT22;6913;49.892;7.936;2022-09-27T10:19:51;14.00;99.90
13682;DHT22;6913;49.892;7.936;2022-09-27T10:22:23;14.10;99.90
13682;DHT22;6913;49.892;7.936;2022-09-27T10:24:57;14.10;99.90
13682;DHT22;6913;49.892;7.936;2022-09-27T10:27:24;14.10;99.90
13682;DHT22;6913;49.892;7.936;2022-09-27T10:29:58;14.00;99.90
13682;DHT22;6913;49.892;7.936;2022-09-27T10:32:30;14.00;99.90
13682;DHT22;6913;49.892;7.936;2022-09-27T10:35:19;14.10;99.90
13682;DHT22;6913;49.892;7.936;2022-09-27T10:37:46;14.30;99.90
13682;DHT22;6913;49.892;7.936;2022-09-27T10:40:26;14.40;99.90
13682;DHT22;6913;49.892;7.936;2022-09-27T10:42:53;14.60;99.90
13682;DHT22;6913;49.892;7.936;2022-09-27T10:45:29;14.70;99.90
13682;DHT22;6913;49.892;7.936;2022-09-27T10:47:58;14.70;99.90
13682;DHT22;6913;49.892;7.936;2022-09-27T10:50:27;14.70;99.90
13682;DHT22;6913;49.892;7.936;2022-09-27T10:53:03;14.00;99.90
13682;DHT22;6913;49.892;7.936;2022-09-27T10:55:33;14.50;99.90
13682;DHT22;6913;49.892;7.936;2022-09-27T10:58:01;14.60;99.90
13682;DHT22;6913;49.892;7.936;2022-09-27T11:00:30;14.70;99.90
13682;DHT22;6913;49.892;7.936;2022-09-27T11:03:01;14.50;99.90
13682;DHT22;6913;49.892;7.936;2022-09-27T11:05:32;14.80;99.90
13682;DHT22;6913;49.892;7.936;2022-09-27T11:08:01;14.90;99.90
13682;DHT22;6913;49.892;7.936;2022-09-27T11:10:30;14.80;99.90
13682;DHT22;6913;49.892;7.936;2022-09-27T11:13:09;15.10;99.90
13682;DHT22;6913;49.892;7.936;2022-09-27T11:15:50;15.00;99.90
13682;DHT22;6913;49.892;7.936;2022-09-27T11:18:28;15.10;99.90
13682;DHT22;6913;49.892;7.936;2022-09-27T11:21:03;15.00;99.90
13682;DHT22;6913;49.892;7.936;2022-09-27T11:23:50;15.10;99.90
13682;DHT22;6913;49.892;7.936;2022-09-27T11:26:38;14.70;99.90
13682;DHT22;6913;49.892;7.936;2022-09-27T11:29:18;14.70;99.90
13682;DHT22;6913;49.892;7.936;2022-09-27T11:31:57;14.80;99.90
13682;DHT22;6913;49.892;7.936;2022-09-27T11:37:28;14.50;99.90
13682;DHT22;6913;49.892;7.936;2022-09-27T11:40:06;14.50;99.90
13682;DHT22;6913;49.892;7.936;2022-09-27T11:42:56;14.20;99.90
13682;DHT22;6913;49.892;7.936;2022-09-27T11:45:33;14.20;99.90
13682;DHT22;6913;49.892;7.936;2022-09-27T11:48:14;14.20;99.90
13682;DHT22;6913;49.892;7.936;2022-09-27T11:51:07;14.20;99.90
13682;DHT22;6913;49.892;7.936;2022-09-27T11:53:52;14.20;99.90
13682;DHT22;6913;49.892;7.936;2022-09-27T11:56:31;14.30;99.90
13682;DHT22;6913;49.892;7.936;2022-09-27T11:59:19;14.20;99.90
13682;DHT22;6913;49.892;7.936;2022-09-27T12:01:55;14.00;99.90
13682;DHT22;6913;49.892;7.936;2022-09-27T12:07:35;14.50;99.90
13682;DHT22;6913;49.892;7.936;2022-09-27T12:10:08;13.60;99.90
13682;DHT22;6913;49.892;7.936;2022-09-27T12:12:39;13.50;99.90
13682;DHT22;6913;49.892;7.936;2022-09-27T12:15:13;13.60;99.90
13682;DHT22;6913;49.892;7.936;2022-09-27T12:17:43;14.00;99.90
13682;DHT22;6913;49.892;7.936;2022-09-27T12:20:18;13.50;99.90
13682;DHT22;6913;49.892;7.936;2022-09-27T12:22:51;13.30;99.90
13682;DHT22;6913;49.892;7.936;2022-09-27T12:25:19;13.30;99.90
13682;DHT22;6913;49.892;7.936;2022-09-27T12:27:51;13.30;99.90
13682;DHT22;6913;49.892;7.936;2022-09-27T12:30:20;14.60;99.90
13682;DHT22;6913;49.892;7.936;2022-09-27T12:32:54;13.30;99.90
13682;DHT22;6913;49.892;7.936;2022-09-27T12:35:26;13.30;99.90
13682;DHT22;6913;49.892;7.936;2022-09-27T12:37:59;13.30;99.90
13682;DHT22;6913;49.892;7.936;2022-09-27T12:40:31;13.40;99.90
13682;DHT22;6913;49.892;7.936;2022-09-27T12:43:05;13.40;99.90
13682;DHT22;6913;49.892;7.936;2022-09-27T12:45:42;13.20;99.90
13682;DHT22;6913;49.892;7.936;2022-09-27T12:48:16;13.00;99.90
13682;DHT22;6913;49.892;7.936;2022-09-27T12:50:49;13.20;99.90
13682;DHT22;6913;49.892;7.936;2022-09-27T12:53:22;13.10;99.90
13682;DHT22;6913;49.892;7.936;2022-09-27T12:56:07;13.30;99.90
13682;DHT22;6913;49.892;7.936;2022-09-27T12:58:51;13.50;99.90
13682;DHT22;6913;49.892;7.936;2022-09-27T13:01:32;13.70;99.90
13682;DHT22;6913;49.892;7.936;2022-09-27T13:04:18;14.00;99.90
13682;DHT22;6913;49.892;7.936;2022-09-27T13:06:56;14.30;99.90
13682;DHT22;6913;49.892;7.936;2022-09-27T13:10:09;14.70;99.90
13682;DHT22;6913;49.892;7.936;2022-09-27T13:12:39;14.50;99.90
13682;DHT22;6913;49.892;7.936;2022-09-27T13:15:14;14.50;99.90
13682;DHT22;6913;49.892;7.936;2022-09-27T13:17:53;14.90;99.90
13682;DHT22;6913;49.892;7.936;2022-09-27T13:20:50;14.80;99.90
13682;DHT22;6913;49.892;7.936;2022-09-27T13:26:49;14.50;99.90
13682;DHT22;6913;49.892;7.936;2022-09-27T13:29:30;14.50;99.90
13682;DHT22;6913;49.892;7.936;2022-09-27T13:34:46;14.40;99.90
13682;DHT22;6913;49.892;7.936;2022-09-27T13:37:41;15.50;99.90
13682;DHT22;6913;49.892;7.936;2022-09-27T13:40:29;14.20;99.90
13682;DHT22;6913;49.892;7.936;2022-09-27T13:43:25;14.10;99.90
13682;DHT22;6913;49.892;7.936;2022-09-27T13:45:59;14.10;99.90
13682;DHT22;6913;49.892;7.936;2022-09-27T13:48:36;14.00;99.90
13682;DHT22;6913;49.892;7.936;2022-09-27T13:51:15;14.00;99.90
13682;DHT22;6913;49.892;7.936;2022-09-27T13:53:55;13.60;99.90
13682;DHT22;6913;49.892;7.936;2022-09-27T13:56:50;13.30;99.90
13682;DHT22;6913;49.892;7.936;2022-09-27T13:59:23;13.00;99.90
13682;DHT22;6913;49.892;7.936;2022-09-27T14:01:52;12.90;99.90
13682;DHT22;6913;49.892;7.936;2022-09-27T14:04:22;12.80;99.90
13682;DHT22;6913;49.892;7.936;2022-09-27T14:06:53;12.50;99.90
13682;DHT22;6913;49.892;7.936;2022-09-27T14:09:25;12.50;99.90
13682;DHT22;6913;49.892;7.936;2022-09-27T14:11:56;12.60;99.90
13682;DHT22;6913;49.892;7.936;2022-09-27T14:14:27;12.60;99.90
13682;DHT22;6913;49.892;7.936;2022-09-27T14:16:57;12.50;99.90
13682;DHT22;6913;49.892;7.936;2022-09-27T14:19:25;12.50;99.90
13682;DHT22;6913;49.892;7.936;2022-09-27T14:22:11;12.40;99.90
13682;DHT22;6913;49.892;7.936;2022-09-27T14:24:46;12.30;99.90
13682;DHT22;6913;49.892;7.936;2022-09-27T14:27:16;12.20;99.90
13682;DHT22;6913;49.892;7.936;2022-09-27T14:29:47;12.20;99.90
13682;DHT22;6913;49.892;7.936;2022-09-27T14:32:15;12.70;99.90
13682;DHT22;6913;49.892;7.936;2022-09-27T14:34:43;12.00;99.90
13682;DHT22;6913;49.892;7.936;2022-09-27T14:37:22;12.10;99.90
13682;DHT22;6913;49.892;7.936;2022-09-27T14:40:01;12.00;99.90
13682;DHT22;6913;49.892;7.936;2022-09-27T14:42:32;11.90;99.90
13682;DHT22;6913;49.892;7.936;2022-09-27T14:45:19;11.90;99.90
13682;DHT22;6913;49.892;7.936;2022-09-27T14:47:49;12.10;99.90
13682;DHT22;6913;49.892;7.936;2022-09-27T14:50:19;12.20;99.90
13682;DHT22;6913;49.892;7.936;2022-09-27T14:52:47;12.10;99.90
13682;DHT22;6913;49.892;7.936;2022-09-27T14:55:18;12.30;99.90
13682;DHT22;6913;49.892;7.936;2022-09-27T14:57:48;12.30;99.90
13682;DHT22;6913;49.892;7.936;2022-09-27T15:00:19;12.30;99.90
13682;DHT22;6913;49.892;7.936;2022-09-27T15:02:49;12.10;99.90
13682;DHT22;6913;49.892;7.936;2022-09-27T15:05:21;12.00;99.90
13682;DHT22;6913;49.892;7.936;2022-09-27T15:07:48;11.90;99.90
13682;DHT22;6913;49.892;7.936;2022-09-27T15:10:17;12.10;99.90
13682;DHT22;6913;49.892;7.936;2022-09-27T15:12:46;12.30;99.90
13682;DHT22;6913;49.892;7.936;2022-09-27T15:15:15;12.30;99.90
13682;DHT22;6913;49.892;7.936;2022-09-27T15:17:46;12.40;99.90
13682;DHT22;6913;49.892;7.936;2022-09-27T15:20:22;12.30;99.90
13682;DHT22;6913;49.892;7.936;2022-09-27T15:22:52;12.40;99.90
13682;DHT22;6913;49.892;7.936;2022-09-27T15:25:24;12.30;99.90
13682;DHT22;6913;49.892;7.936;2022-09-27T15:28:00;12.40;99.90
13682;DHT22;6913;49.892;7.936;2022-09-27T15:30:32;12.30;99.90
13682;DHT22;6913;49.892;7.936;2022-09-27T15:33:01;12.30;99.90
13682;DHT22;6913;49.892;7.936;2022-09-27T15:35:30;12.40;99.90
13682;DHT22;6913;49.892;7.936;2022-09-27T15:38:12;12.40;99.90
13682;DHT22;6913;49.892;7.936;2022-09-27T15:41:07;12.40;99.90
13682;DHT22;6913;49.892;7.936;2022-09-27T15:43:37;12.50;99.90
13682;DHT22;6913;49.892;7.936;2022-09-27T15:46:34;12.60;99.90
13682;DHT22;6913;49.892;7.936;2022-09-27T15:49:28;12.70;99.90
13682;DHT22;6913;49.892;7.936;2022-09-27T15:51:57;12.60;99.90
13682;DHT22;6913;49.892;7.936;2022-09-27T15:54:26;12.50;99.90
13682;DHT22;6913;49.892;7.936;2022-09-27T15:56:55;12.40;99.90
13682;DHT22;6913;49.892;7.936;2022-09-27T15:59:26;12.30;99.90
13682;DHT22;6913;49.892;7.936;2022-09-27T16:01:55;12.40;99.90
13682;DHT22;6913;49.892;7.936;2022-09-27T16:04:22;12.30;99.90
13682;DHT22;6913;49.892;7.936;2022-09-27T16:06:50;12.30;99.90
13682;DHT22;6913;49.892;7.936;2022-09-27T16:09:18;12.40;99.90
13682;DHT22;6913;49.892;7.936;2022-09-27T16:11:45;12.30;99.90
13682;DHT22;6913;49.892;7.936;2022-09-27T16:14:13;12.20;99.90
13682;DHT22;6913;49.892;7.936;2022-09-27T16:16:43;12.10;99.90
13682;DHT22;6913;49.892;7.936;2022-09-27T16:19:10;12.10;99.90
13682;DHT22;6913;49.892;7.936;2022-09-27T16:21:37;12.60;99.90
13682;DHT22;6913;49.892;7.936;2022-09-27T16:24:07;12.00;99.90
13682;DHT22;6913;49.892;7.936;2022-09-27T16:26:34;11.90;99.90
13682;DHT22;6913;49.892;7.936;2022-09-27T16:29:00;11.90;99.90
13682;DHT22;6913;49.892;7.936;2022-09-27T16:31:27;11.80;99.90
13682;DHT22;6913;49.892;7.936;2022-09-27T16:33:54;11.90;99.90
13682;DHT22;6913;49.892;7.936;2022-09-27T16:36:21;11.80;99.90
13682;DHT22;6913;49.892;7.936;2022-09-27T16:38:48;11.80;99.90